createdAt,value
2023-04-11T00:01:39.507Z,57.88
2023-04-11T00:04:08.010Z,57.86
2023-04-11T00:06:36.574Z,57.91
2023-04-11T00:09:05.073Z,57.94
2023-04-11T00:11:33.181Z,58.01
2023-04-11T00:14:01.246Z,58.13
2023-04-11T00:16:29.659Z,58.29
2023-04-11T00:18:57.921Z,58.13
2023-04-11T00:21:26.295Z,58.37
2023-04-11T00:23:55.484Z,58.33
2023-04-11T00:26:23.827Z,58.45
2023-04-11T00:28:51.957Z,58.44
2023-04-11T00:31:20.182Z,58.40
2023-04-11T00:33:48.303Z,58.33
2023-04-11T00:36:16.640Z,58.44
2023-04-11T00:38:46.507Z,58.51
2023-04-11T00:41:14.656Z,58.54
2023-04-11T00:43:43.488Z,58.65
2023-04-11T00:46:11.914Z,58.63
2023-04-11T00:48:40.294Z,58.74
2023-04-11T00:51:08.709Z,58.69
2023-04-11T00:53:37.838Z,58.82
2023-04-11T00:56:07.115Z,58.82
2023-04-11T00:58:37.812Z,58.98
2023-04-11T01:01:09.258Z,59.00
2023-04-11T01:03:39.802Z,58.93
2023-04-11T01:06:11.219Z,58.97
2023-04-11T01:08:42.601Z,58.93
2023-04-11T01:11:12.889Z,58.84
2023-04-11T01:13:41.968Z,58.96
2023-04-11T01:16:10.791Z,58.93
2023-04-11T01:18:39.126Z,59.02
2023-04-11T01:21:07.884Z,59.02
2023-04-11T01:23:36.125Z,59.01
2023-04-11T01:26:04.376Z,59.07
2023-04-11T01:28:32.580Z,59.25
2023-04-11T01:31:01.982Z,59.27
2023-04-11T01:33:30.626Z,59.15
2023-04-11T01:35:58.852Z,59.22
2023-04-11T01:38:27.036Z,59.39
2023-04-11T01:40:57.541Z,59.32
2023-04-11T01:43:25.737Z,59.33
2023-04-11T01:45:54.119Z,59.40
2023-04-11T01:48:22.862Z,59.31
2023-04-11T01:50:52.061Z,59.35
2023-04-11T01:53:20.113Z,59.33
2023-04-11T01:55:48.370Z,59.41
2023-04-11T01:58:16.513Z,59.28
2023-04-11T02:00:44.750Z,59.36
2023-04-11T02:03:13.135Z,59.48
2023-04-11T02:05:42.935Z,59.44
2023-04-11T02:08:11.432Z,59.50
2023-04-11T02:10:39.589Z,59.60
2023-04-11T02:13:07.807Z,59.74
2023-04-11T02:15:35.923Z,59.77
2023-04-11T02:18:04.305Z,59.82
2023-04-11T02:20:32.591Z,59.84
2023-04-11T02:23:04.564Z,59.93
2023-04-11T02:25:33.269Z,59.84
2023-04-11T02:28:01.387Z,60.01
2023-04-11T02:30:29.565Z,60.06
2023-04-11T02:32:57.643Z,60.01
2023-04-11T02:35:26.306Z,60.07
2023-04-11T02:37:54.640Z,60.14
2023-04-11T02:40:22.752Z,60.15
2023-04-11T02:42:50.878Z,60.21
2023-04-11T02:45:19.366Z,60.23
2023-04-11T02:47:47.503Z,60.26
2023-04-11T02:50:16.228Z,60.25
2023-04-11T02:52:49.518Z,60.19
2023-04-11T02:55:20.032Z,60.11
2023-04-11T02:57:48.102Z,59.98
2023-04-11T03:00:20.236Z,60.25
2023-04-11T03:02:57.545Z,60.20
2023-04-11T03:05:26.382Z,60.28
2023-04-11T03:07:55.056Z,60.29
2023-04-11T03:10:26.168Z,60.33
2023-04-11T03:12:54.952Z,60.22
2023-04-11T03:15:23.193Z,60.33
2023-04-11T03:17:51.486Z,60.39
2023-04-11T03:20:20.328Z,60.32
2023-04-11T03:22:54.048Z,60.16
2023-04-11T03:25:22.814Z,60.36
2023-04-11T03:27:52.143Z,60.40
2023-04-11T03:30:20.327Z,60.45
2023-04-11T03:32:49.251Z,60.47
2023-04-11T03:35:18.910Z,60.51
2023-04-11T03:37:48.237Z,60.65
2023-04-11T03:40:18.632Z,60.62
2023-04-11T03:42:51.119Z,60.78
2023-04-11T03:45:22.466Z,60.85
2023-04-11T03:47:51.464Z,60.70
2023-04-11T03:50:20.649Z,60.89
2023-04-11T03:52:50.163Z,60.84
2023-04-11T03:55:18.751Z,60.83
2023-04-11T03:57:47.034Z,60.70
2023-04-11T04:00:15.933Z,60.83
2023-04-11T04:02:49.467Z,60.96
2023-04-11T04:05:17.819Z,60.86
2023-04-11T04:07:45.957Z,61.12
2023-04-11T04:10:21.399Z,61.12
2023-04-11T04:12:53.424Z,61.07
2023-04-11T04:15:25.216Z,61.27
2023-04-11T04:17:54.083Z,61.20
2023-04-11T04:20:28.748Z,61.35
2023-04-11T04:23:00.289Z,61.41
2023-04-11T04:25:42.260Z,61.62
2023-04-11T04:28:11.583Z,61.59
2023-04-11T04:30:40.833Z,61.54
2023-04-11T04:33:12.489Z,61.60
2023-04-11T04:35:43.172Z,61.54
2023-04-11T04:38:18.135Z,61.79
2023-04-11T04:40:54.779Z,61.66
2023-04-11T04:43:24.639Z,61.65
2023-04-11T04:46:15.769Z,61.76
2023-04-11T04:48:48.022Z,61.83
2023-04-11T04:51:16.185Z,61.89
2023-04-11T04:53:44.369Z,62.05
2023-04-11T04:56:12.696Z,61.96
2023-04-11T04:58:45.451Z,61.88
2023-04-11T05:01:14.152Z,62.00
2023-04-11T05:13:47.797Z,62.28
2023-04-11T05:16:18.335Z,62.48
2023-04-11T05:18:47.022Z,62.36
2023-04-11T05:21:15.788Z,62.47
2023-04-11T05:23:45.598Z,62.54
2023-04-11T05:26:13.957Z,62.67
2023-04-11T05:28:42.553Z,62.70
2023-04-11T05:31:13.809Z,62.95
2023-04-11T05:33:43.274Z,62.82
2023-04-11T05:36:14.535Z,62.80
2023-04-11T05:38:44.420Z,62.92
2023-04-11T05:41:13.076Z,62.89
2023-04-11T05:43:41.145Z,62.91
2023-04-11T05:46:10.752Z,62.94
2023-04-11T05:48:39.576Z,63.04
2023-04-11T05:51:08.133Z,63.03
2023-04-11T05:53:36.342Z,62.98
2023-04-11T05:56:04.791Z,63.02
2023-04-11T05:58:34.258Z,63.25
2023-04-11T06:01:02.378Z,63.31
2023-04-11T06:03:30.743Z,63.40
2023-04-11T06:06:00.422Z,63.40
2023-04-11T06:08:28.801Z,63.44
2023-04-11T06:10:56.874Z,63.64
2023-04-11T06:13:26.110Z,63.63
2023-04-11T06:15:54.896Z,63.59
2023-04-11T06:18:23.007Z,63.69
2023-04-11T06:20:51.184Z,63.77
2023-04-11T06:23:19.450Z,63.87
2023-04-11T06:25:47.664Z,63.95
2023-04-11T06:28:15.840Z,64.21
2023-04-11T06:30:44.095Z,64.17
2023-04-11T06:33:12.466Z,64.24
2023-04-11T06:35:41.051Z,64.24
2023-04-11T06:38:09.425Z,64.18
2023-04-11T06:40:37.719Z,64.27
2023-04-11T06:43:06.013Z,64.16
2023-04-11T06:45:34.325Z,64.32
2023-04-11T06:48:02.425Z,64.34
2023-04-11T06:50:30.869Z,64.40
2023-04-11T06:52:59.753Z,64.35
2023-04-11T06:55:27.880Z,64.41
2023-04-11T06:57:56.023Z,64.34
2023-04-11T07:00:24.965Z,64.39
2023-04-11T07:02:53.301Z,64.48
2023-04-11T07:05:21.706Z,64.37
2023-04-11T07:07:50.239Z,64.36
2023-04-11T07:10:18.293Z,64.36
2023-04-11T07:12:46.393Z,64.41
2023-04-11T07:15:15.112Z,64.40
2023-04-11T07:17:43.492Z,64.48
2023-04-11T07:20:12.516Z,64.45
2023-04-11T07:22:43.486Z,64.47
2023-04-11T07:25:11.683Z,64.53
2023-04-11T07:27:43.876Z,64.44
2023-04-11T07:30:12.904Z,64.47
2023-04-11T07:32:40.994Z,64.63
2023-04-11T07:35:10.247Z,64.52
2023-04-11T07:37:38.404Z,64.54
2023-04-11T07:40:10.776Z,64.54
2023-04-11T07:42:39.382Z,64.56
2023-04-11T07:45:08.364Z,64.62
2023-04-11T07:47:36.490Z,64.68
2023-04-11T07:50:05.490Z,64.63
2023-04-11T07:52:33.891Z,64.58
2023-04-11T07:55:04.803Z,64.67
2023-04-11T07:57:33.236Z,64.68
2023-04-11T08:00:01.916Z,64.69
2023-04-11T08:02:41.229Z,64.73
2023-04-11T08:05:10.119Z,64.75
2023-04-11T08:07:38.503Z,64.87
2023-04-11T08:10:07.851Z,64.82
2023-04-11T08:12:36.050Z,64.79
2023-04-11T08:15:05.089Z,64.77
2023-04-11T08:17:38.253Z,64.70
2023-04-11T08:20:10.548Z,64.72
2023-04-11T08:22:39.776Z,64.75
2023-04-11T08:25:09.980Z,64.72
2023-04-11T08:27:39.160Z,64.67
2023-04-11T08:30:08.625Z,64.74
2023-04-11T08:32:37.447Z,64.57
2023-04-11T08:35:06.054Z,64.64
2023-04-11T08:37:34.844Z,64.65
2023-04-11T08:40:07.113Z,64.66
2023-04-11T08:42:35.833Z,64.64
2023-04-11T08:45:08.864Z,64.64
2023-04-11T08:47:37.512Z,64.60
2023-04-11T08:50:06.945Z,64.47
2023-04-11T08:52:38.004Z,64.44
2023-04-11T08:55:07.096Z,64.58
2023-04-11T08:57:38.214Z,64.36
2023-04-11T09:00:19.488Z,64.26
2023-04-11T09:03:01.061Z,64.18
2023-04-11T09:05:32.559Z,64.13
2023-04-11T09:08:03.820Z,64.10
2023-04-11T09:10:32.321Z,63.90
2023-04-11T09:13:02.393Z,63.73
2023-04-11T09:15:31.755Z,63.64
2023-04-11T09:18:01.061Z,63.56
2023-04-11T09:20:31.248Z,63.47
2023-04-11T09:22:59.422Z,63.39
2023-04-11T09:25:28.466Z,63.32
2023-04-11T09:28:10.484Z,63.25
2023-04-11T09:30:38.748Z,63.11
2023-04-11T09:33:22.856Z,62.97
2023-04-11T09:35:54.281Z,62.97
2023-04-11T09:38:30.978Z,62.91
2023-04-11T09:41:00.766Z,62.87
2023-04-11T09:43:51.881Z,62.92
2023-04-11T09:46:21.375Z,62.68
2023-04-11T09:48:51.292Z,62.55
2023-04-11T09:53:52.450Z,62.53
2023-04-11T09:56:20.575Z,62.32
2023-04-11T09:58:49.933Z,62.22
2023-04-11T10:01:20.087Z,62.17
2023-04-11T10:03:51.187Z,62.07
2023-04-11T10:06:31.864Z,61.95
2023-04-11T10:09:11.870Z,61.93
2023-04-11T10:11:44.715Z,61.92
2023-04-11T10:14:37.947Z,61.66
2023-04-11T10:17:14.615Z,61.43
2023-04-11T10:19:44.858Z,61.35
2023-04-11T10:22:41.894Z,61.44
2023-04-11T10:25:25.002Z,61.23
2023-04-11T10:28:02.083Z,61.07
2023-04-11T10:30:40.256Z,61.08
2023-04-11T10:33:38.164Z,60.76
2023-04-11T10:36:11.563Z,60.63
2023-04-11T10:38:49.206Z,60.34
2023-04-11T10:41:23.342Z,60.33
2023-04-11T10:43:52.380Z,60.30
2023-04-11T10:46:25.282Z,60.22
2023-04-11T10:49:04.672Z,60.07
2023-04-11T10:51:34.492Z,59.95
2023-04-11T10:54:03.093Z,59.84
2023-04-11T10:56:41.116Z,59.65
2023-04-11T10:59:31.397Z,59.53
2023-04-11T11:02:01.774Z,59.38
2023-04-11T11:04:32.365Z,59.07
2023-04-11T11:07:01.961Z,58.89
2023-04-11T11:09:31.338Z,58.81
2023-04-11T11:12:11.177Z,58.78
2023-04-11T11:14:42.174Z,58.62
2023-04-11T11:17:12.877Z,58.78
2023-04-11T11:19:48.642Z,58.56
2023-04-11T11:22:17.879Z,58.50
2023-04-11T11:24:45.980Z,58.39
2023-04-11T11:27:24.592Z,58.02
2023-04-11T11:29:53.534Z,58.09
2023-04-11T11:32:29.872Z,58.07
2023-04-11T11:34:58.952Z,58.12
2023-04-11T11:37:27.230Z,57.74
2023-04-11T11:39:55.703Z,57.71
2023-04-11T11:42:24.695Z,57.63
2023-04-11T11:44:52.964Z,57.63
2023-04-11T11:47:21.079Z,57.52
2023-04-11T11:49:54.623Z,57.35
2023-04-11T11:52:40.931Z,57.22
2023-04-11T11:55:18.412Z,57.15
2023-04-11T11:57:50.701Z,57.28
2023-04-11T12:00:27.323Z,57.05
2023-04-11T12:03:00.131Z,56.76
2023-04-11T12:05:35.022Z,56.76
2023-04-11T12:08:06.570Z,56.70
2023-04-11T12:10:42.766Z,56.61
2023-04-11T12:13:12.409Z,56.58
2023-04-11T12:15:43.502Z,56.45
2023-04-11T12:18:12.128Z,56.40
2023-04-11T12:20:40.734Z,56.37
2023-04-11T12:23:09.124Z,56.20
2023-04-11T12:25:37.591Z,56.15
2023-04-11T12:28:06.265Z,56.04
2023-04-11T12:30:34.405Z,55.98
2023-04-11T12:33:02.766Z,55.91
2023-04-11T12:35:31.342Z,55.74
2023-04-11T12:37:59.784Z,55.83
2023-04-11T12:40:29.833Z,55.71
2023-04-11T12:42:58.773Z,55.82
2023-04-11T12:45:27.285Z,55.51
2023-04-11T12:47:55.528Z,55.25
2023-04-11T12:50:24.583Z,55.25
2023-04-11T12:52:53.469Z,55.02
2023-04-11T12:55:22.492Z,54.71
2023-04-11T12:57:50.729Z,54.59
2023-04-11T13:00:19.549Z,54.46
2023-04-11T13:02:48.829Z,54.21
2023-04-11T13:05:17.882Z,54.26
2023-04-11T13:07:46.735Z,54.22
2023-04-11T13:10:16.297Z,53.97
2023-04-11T13:12:45.744Z,53.78
2023-04-11T13:15:16.857Z,53.53
2023-04-11T13:17:45.826Z,53.54
2023-04-11T13:20:14.701Z,53.43
2023-04-11T13:22:43.389Z,53.39
2023-04-11T13:25:12.472Z,53.45
2023-04-11T13:27:41.806Z,53.51
2023-04-11T13:30:11.256Z,53.33
2023-04-11T13:32:39.626Z,53.16
2023-04-11T13:35:08.694Z,53.03
2023-04-11T13:37:37.153Z,52.98
2023-04-11T13:40:11.194Z,52.78
2023-04-11T13:42:39.869Z,52.89
2023-04-11T13:45:08.821Z,52.86
2023-04-11T13:47:38.737Z,52.75
2023-04-11T13:50:08.840Z,52.35
2023-04-11T13:52:37.950Z,52.40
2023-04-11T13:55:06.570Z,52.56
2023-04-11T13:57:35.081Z,52.51
2023-04-11T14:00:13.651Z,52.42
2023-04-11T14:02:43.148Z,52.31
2023-04-11T14:05:11.700Z,52.34
2023-04-11T14:07:41.456Z,52.42
2023-04-11T14:10:10.760Z,52.23
2023-04-11T14:12:39.401Z,52.22
2023-04-11T14:15:08.142Z,52.13
2023-04-11T14:17:36.418Z,52.06
2023-04-11T14:20:06.953Z,52.16
2023-04-11T14:22:35.988Z,52.09
2023-04-11T14:25:05.593Z,52.33
2023-04-11T14:27:33.622Z,52.35
2023-04-11T14:30:02.167Z,52.34
2023-04-11T14:32:30.745Z,52.32
2023-04-11T14:35:02.023Z,52.29
2023-04-11T14:37:32.088Z,52.46
2023-04-11T14:40:01.296Z,52.37
2023-04-11T14:42:29.703Z,52.37
2023-04-11T14:44:57.838Z,52.35
2023-04-11T14:47:26.214Z,52.42
2023-04-11T14:49:56.836Z,52.60
2023-04-11T14:52:24.953Z,52.60
2023-04-11T14:54:53.435Z,52.70
2023-04-11T14:57:22.771Z,52.88
2023-04-11T14:59:50.940Z,52.74
2023-04-11T15:02:19.284Z,53.03
2023-04-11T15:04:47.668Z,53.04
2023-04-11T15:07:16.445Z,53.18
2023-04-11T15:09:45.028Z,53.18
2023-04-11T15:12:13.058Z,53.35
2023-04-11T15:14:41.382Z,53.43
2023-04-11T15:17:09.482Z,53.60
2023-04-11T15:19:37.509Z,53.76
2023-04-11T15:22:05.755Z,53.94
2023-04-11T15:24:34.084Z,53.95
2023-04-11T15:27:02.170Z,54.15
2023-04-11T15:29:30.320Z,54.08
2023-04-11T15:32:02.736Z,54.13
2023-04-11T15:34:30.972Z,54.08
2023-04-11T15:36:59.934Z,54.15
2023-04-11T15:39:28.344Z,54.01
2023-04-11T15:41:56.484Z,54.26
2023-04-11T15:44:24.882Z,54.33
2023-04-11T15:46:53.088Z,54.15
2023-04-11T15:49:21.367Z,54.26
2023-04-11T15:51:49.762Z,54.21
2023-04-11T15:54:18.074Z,54.31
2023-04-11T15:56:46.486Z,54.13
2023-04-11T15:59:16.260Z,54.10
2023-04-11T16:01:44.508Z,54.24
2023-04-11T16:04:12.957Z,54.15
2023-04-11T16:06:41.321Z,54.23
2023-04-11T16:09:09.432Z,54.21
2023-04-11T16:11:39.963Z,54.37
2023-04-11T16:14:08.439Z,54.22
2023-04-11T16:16:36.495Z,54.28
2023-04-11T16:19:04.617Z,54.27
2023-04-11T16:21:32.882Z,54.16
2023-04-11T16:24:01.313Z,54.24
2023-04-11T16:26:29.429Z,54.11
2023-04-11T16:28:57.686Z,54.08
2023-04-11T16:31:26.099Z,54.18
2023-04-11T16:33:55.400Z,54.27
2023-04-11T16:36:24.368Z,54.30
2023-04-11T16:38:53.220Z,54.30
2023-04-11T16:41:21.858Z,54.19
2023-04-11T16:43:50.107Z,54.21
2023-04-11T16:46:18.691Z,54.37
2023-04-11T16:48:46.834Z,54.20
2023-04-11T16:51:18.698Z,54.27
2023-04-11T16:53:47.491Z,54.29
2023-04-11T16:56:18.125Z,54.18
2023-04-11T16:58:47.003Z,54.42
2023-04-11T17:01:15.320Z,54.50
2023-04-11T17:03:43.977Z,54.68
2023-04-11T17:06:15.078Z,54.86
2023-04-11T17:08:44.650Z,55.07
2023-04-11T17:11:13.723Z,55.32
2023-04-11T17:13:45.584Z,55.52
2023-04-11T17:16:13.947Z,55.74
2023-04-11T17:18:42.656Z,55.99
2023-04-11T17:21:11.571Z,56.23
2023-04-11T17:23:43.502Z,56.48
2023-04-11T17:26:14.439Z,56.65
2023-04-11T17:28:42.792Z,56.98
2023-04-11T17:31:15.766Z,57.14
2023-04-11T17:33:44.989Z,57.42
2023-04-11T17:36:13.990Z,57.62
2023-04-11T17:38:43.787Z,57.70
2023-04-11T17:41:15.461Z,58.06
2023-04-11T17:43:44.890Z,58.35
2023-04-11T17:46:13.884Z,58.60
2023-04-11T17:48:42.402Z,58.68
2023-04-11T17:51:11.120Z,58.99
2023-04-11T17:53:39.746Z,59.15
2023-04-11T17:56:08.350Z,59.33
2023-04-11T17:58:37.364Z,59.50
2023-04-11T18:01:09.150Z,59.63
2023-04-11T18:03:38.925Z,59.76
2023-04-11T18:06:08.216Z,60.01
2023-04-11T18:11:12.277Z,60.33
2023-04-11T18:13:42.885Z,60.50
2023-04-11T18:16:11.466Z,60.64
2023-04-11T18:18:40.294Z,60.81
2023-04-11T18:21:08.717Z,60.90
2023-04-11T18:23:38.259Z,61.01
2023-04-11T18:26:07.018Z,61.27
2023-04-11T18:28:35.137Z,61.40
2023-04-11T18:31:04.564Z,61.56
2023-04-11T18:33:42.111Z,61.74
2023-04-11T18:36:12.923Z,61.84
2023-04-11T18:38:41.528Z,61.96
2023-04-11T18:41:10.196Z,62.16
2023-04-11T18:43:39.064Z,62.34
2023-04-11T18:46:08.303Z,62.50
2023-04-11T18:48:36.979Z,62.68
2023-04-11T18:51:05.948Z,62.81
2023-04-11T18:53:37.053Z,62.75
2023-04-11T18:56:08.143Z,63.03
2023-04-11T18:58:39.954Z,63.08
2023-04-11T19:01:15.658Z,63.23
2023-04-11T19:03:46.477Z,63.41
2023-04-11T19:06:15.377Z,63.43
2023-04-11T19:08:43.525Z,63.44
2023-04-11T19:11:12.805Z,63.62
2023-04-11T19:13:41.239Z,63.66
2023-04-11T19:16:09.508Z,63.88
2023-04-11T19:18:38.722Z,63.86
2023-04-11T19:21:09.260Z,63.96
2023-04-11T19:23:37.669Z,64.10
2023-04-11T19:26:06.375Z,64.29
2023-04-11T19:28:35.885Z,64.34
2023-04-11T19:31:04.409Z,64.40
2023-04-11T19:33:33.269Z,64.44
2023-04-11T19:36:02.355Z,64.62
2023-04-11T19:38:30.716Z,64.77
2023-04-11T19:41:14.006Z,64.77
2023-04-11T19:43:43.417Z,65.00
2023-04-11T19:46:12.596Z,65.23
2023-04-11T19:48:41.801Z,65.24
2023-04-11T19:51:11.054Z,65.32
2023-04-11T19:53:40.150Z,65.38
2023-04-11T19:56:10.912Z,65.52
2023-04-11T19:58:39.961Z,65.65
2023-04-11T20:01:09.829Z,65.59
2023-04-11T20:03:39.412Z,65.77
2023-04-11T20:06:07.927Z,65.97
2023-04-11T20:08:38.148Z,66.04
2023-04-11T20:11:06.729Z,66.12
2023-04-11T20:13:36.041Z,66.19
2023-04-11T20:16:08.401Z,66.38
2023-04-11T20:18:36.519Z,66.28
2023-04-11T20:21:07.721Z,66.53
2023-04-11T20:23:37.290Z,66.41
2023-04-11T20:26:05.535Z,66.52
2023-04-11T20:28:33.645Z,66.58
2023-04-11T20:31:04.628Z,66.67
2023-04-11T20:33:33.037Z,66.78
2023-04-11T20:36:03.339Z,66.68
2023-04-11T20:38:32.100Z,66.91
2023-04-11T20:41:03.818Z,66.86
2023-04-11T20:43:32.157Z,67.04
2023-04-11T20:46:00.416Z,67.14
2023-04-11T20:48:30.195Z,67.09
2023-04-11T20:51:02.405Z,67.12
2023-04-11T20:53:30.634Z,67.16
2023-04-11T20:55:58.758Z,67.22
2023-04-11T20:58:27.041Z,67.44
2023-04-11T21:00:55.401Z,67.41
2023-04-11T21:03:24.088Z,67.38
2023-04-11T21:05:52.453Z,67.53
2023-04-11T21:08:20.788Z,67.58
2023-04-11T21:10:48.916Z,67.69
2023-04-11T21:13:17.117Z,67.72
2023-04-11T21:15:46.086Z,67.82
2023-04-11T21:18:14.371Z,67.98
2023-04-11T21:20:42.622Z,68.01
2023-04-11T21:23:11.091Z,67.87
2023-04-11T21:25:39.534Z,67.94
2023-04-11T21:28:07.697Z,67.90
2023-04-11T21:30:36.076Z,67.94
2023-04-11T21:33:04.278Z,68.03
2023-04-11T21:35:32.483Z,67.95
2023-04-11T21:38:00.971Z,67.96
2023-04-11T21:40:29.543Z,68.14
2023-04-11T21:42:57.902Z,68.14
2023-04-11T21:45:26.206Z,68.06
2023-04-11T21:47:54.574Z,68.29
2023-04-11T21:50:22.976Z,68.31
2023-04-11T21:52:52.736Z,68.27
2023-04-11T21:55:20.834Z,68.23
2023-04-11T21:57:48.939Z,68.36
2023-04-11T22:00:18.296Z,68.36
2023-04-11T22:02:46.503Z,68.36
2023-04-11T22:05:17.430Z,68.44
2023-04-11T22:07:48.769Z,68.46
2023-04-11T22:10:23.816Z,68.40
2023-04-11T22:12:54.462Z,68.55
2023-04-11T22:15:24.570Z,68.64
2023-04-11T22:17:54.472Z,68.68
2023-04-11T22:20:22.922Z,68.62
2023-04-11T22:22:51.241Z,68.55
2023-04-11T22:25:22.288Z,68.69
2023-04-11T22:27:54.712Z,68.73
2023-04-11T22:30:24.480Z,68.78
2023-04-11T22:32:54.428Z,68.88
2023-04-11T22:35:25.984Z,68.86
2023-04-11T22:37:57.194Z,68.93
2023-04-11T22:40:25.511Z,68.82
2023-04-11T22:42:54.142Z,68.86
2023-04-11T22:45:23.395Z,68.97
2023-04-11T23:13:30.680Z,69.09
2023-04-11T23:16:02.512Z,68.98
2023-04-11T23:18:30.681Z,69.01
2023-04-11T23:20:58.882Z,68.91
2023-04-11T23:23:27.902Z,69.04
2023-04-11T23:25:56.483Z,69.00
2023-04-11T23:28:25.446Z,69.04
2023-04-11T23:31:50.506Z,69.25
2023-04-11T23:34:37.675Z,69.30
2023-04-11T23:37:05.934Z,69.22
2023-04-11T23:39:34.085Z,69.11
2023-04-11T23:42:02.825Z,69.10
2023-04-11T23:44:31.406Z,69.11
2023-04-11T23:47:00.217Z,69.19
2023-04-11T23:49:28.538Z,69.13
2023-04-11T23:51:56.973Z,69.10
2023-04-11T23:54:30.058Z,69.18
2023-04-11T23:56:58.864Z,69.42
2023-04-11T23:59:27.175Z,69.32
